D60

Tioga Municipal Airport

Tioga, North Dakota, USA
METAR KD60 151235Z AUTO 33015KT 10SM FEW055 OVC075 02/02 A2987 RMK AO2
Observed Flight Rules
Nov-15 @ 12:35 UTC (8 minutes ago) Visual Flight Rules
Wind Visibility Clouds
330° at 15 knots 10 miles
  • Few at 5,500' AGL
  • Overcast at 7,500' AGL
Temperatures Readings
Current 2°C / 36°F
Dewpoint 2°C / 36°F
Humidity 100%
Altimeter 29.87" Hg
Pressure 1012 hPa
Elevation 693
METAR KD60 151235Z AUTO 33015KT 10SM FEW055 OVC075 02/02 A2987 RMK AO2
Observed Flight Rules
Nov-15 @ 12:35 UTC
(8 minutes ago)
VFR
Wind Visibility
330° at 15 knots 10 miles
Clouds
  • Few at 5,500' AGL
  • Overcast at 7,500' AGL
Temperature Dewpoint
2°C / 36°F 2°C / 36°F
Humidity Altimeter Pressure
100% 29.87" Hg 1012 hPa